Time;durP1;ratioP1;P1;durP2;ratioP2;P2;SDS_P1;SDS_P2;PMS_P1;PMS_P2;Temp;Humidity;BMP_temperature;BMP_pressure;BME280_temperature;BME280_humidity;BME280_pressure;Samples;Min_cycle;Max_cycle;Signal;HPM_P1;HPM_P2
2022/01/16 00:01:17;;;;;;;32.53;14.13;;;1.20;99.90;;;;;;5071338;28;20040;-79
2022/01/16 00:06:26;;;;;;;44.47;15.80;;;1.10;99.90;;;;;;5056618;28;20067;-79
2022/01/16 00:08:52;;;;;;;61.27;23.13;;;1.10;99.90;;;;;;5070295;28;20124;-81
2022/01/16 00:11:18;;;;;;;56.13;20.93;;;0.90;99.90;;;;;;5071209;28;20080;-79
2022/01/16 00:13:44;;;;;;;62.23;23.47;;;0.90;99.90;;;;;;5053964;28;20102;-81
2022/01/16 00:16:13;;;;;;;78.80;27.57;;;1.00;99.90;;;;;;5071342;28;20041;-81
2022/01/16 00:18:54;;;;;;;48.50;17.37;;;0.90;99.90;;;;;;5051350;28;20037;-81
2022/01/16 00:21:21;;;;;;;65.47;24.67;;;0.90;99.90;;;;;;5056581;28;20046;-81
2022/01/16 00:23:47;;;;;;;56.00;18.83;;;1.00;99.90;;;;;;5070879;28;20036;-81
2022/01/16 00:26:14;;;;;;;48.60;18.33;;;0.90;99.90;;;;;;5070570;28;20052;-81
2022/01/16 00:28:40;;;;;;;39.03;16.97;;;0.90;99.90;;;;;;5071422;28;20106;-79
2022/01/16 00:31:05;;;;;;;45.60;17.93;;;1.00;99.90;;;;;;5070806;28;20072;-79
2022/01/16 00:33:31;;;;;;;48.73;18.93;;;1.00;99.90;;;;;;5054170;28;20037;-81
2022/01/16 00:35:57;;;;;;;53.40;18.07;;;1.00;99.90;;;;;;5071186;28;20037;-81
2022/01/16 00:38:23;;;;;;;56.40;22.90;;;1.00;99.90;;;;;;5035402;28;20040;-82
2022/01/16 00:40:48;;;;;;;58.10;20.40;;;1.10;99.90;;;;;;5017949;28;20045;-81
2022/01/16 00:43:14;;;;;;;44.00;16.70;;;1.00;99.90;;;;;;5049870;28;20094;-79
2022/01/16 00:45:40;;;;;;;37.90;16.20;;;1.00;99.90;;;;;;5035683;28;20511;-79
2022/01/16 00:48:07;;;;;;;49.07;17.87;;;1.10;99.90;;;;;;5069813;28;20568;-79
2022/01/16 00:50:34;;;;;;;83.83;26.67;;;1.10;99.90;;;;;;5036107;28;20032;-79
2022/01/16 00:53:01;;;;;;;56.80;21.47;;;1.10;99.90;;;;;;5044882;28;20052;-79
2022/01/16 00:55:27;;;;;;;60.73;21.13;;;1.10;99.90;;;;;;5054081;28;20540;-81
2022/01/16 00:57:53;;;;;;;62.37;22.33;;;1.10;99.90;;;;;;5052942;28;20431;-79
2022/01/16 01:00:19;;;;;;;108.50;33.50;;;1.10;99.90;;;;;;5070464;28;20053;-79
2022/01/16 01:02:45;;;;;;;94.43;32.47;;;1.10;99.90;;;;;;5050122;28;20396;-79
2022/01/16 01:05:11;;;;;;;62.67;23.23;;;1.20;99.90;;;;;;5053775;28;20044;-79
2022/01/16 01:07:39;;;;;;;68.20;28.17;;;1.20;99.90;;;;;;5059344;28;20515;-79
2022/01/16 01:10:06;;;;;;;51.53;23.43;;;1.20;99.90;;;;;;5054845;28;20045;-80
2022/01/16 01:12:51;;;;;;;54.43;23.10;;;1.20;99.90;;;;;;5069995;28;20044;-79
2022/01/16 01:15:18;;;;;;;55.20;21.43;;;1.20;99.90;;;;;;5039548;28;20055;-81
2022/01/16 01:17:45;;;;;;;56.87;25.27;;;1.20;99.90;;;;;;5043615;28;20036;-79
2022/01/16 01:20:15;;;;;;;71.43;28.23;;;1.20;99.90;;;;;;5052658;28;20045;-79
2022/01/16 01:22:41;;;;;;;105.87;40.87;;;1.20;99.90;;;;;;5051049;28;20403;-81
2022/01/16 01:25:09;;;;;;;109.23;40.90;;;1.30;99.90;;;;;;5060209;28;20087;-81
2022/01/16 01:27:35;;;;;;;99.73;37.03;;;1.30;99.90;;;;;;5073954;28;20040;-81
2022/01/16 01:30:06;;;;;;;66.10;25.53;;;1.30;99.90;;;;;;5074456;28;20072;-79
2022/01/16 01:32:33;;;;;;;73.27;27.67;;;1.30;99.90;;;;;;5066895;28;20491;-81
2022/01/16 01:35:00;;;;;;;103.73;37.87;;;1.30;99.90;;;;;;5072890;28;20044;-81
2022/01/16 01:37:26;;;;;;;73.50;28.13;;;1.30;99.90;;;;;;5073796;28;20036;-79
2022/01/16 01:39:51;;;;;;;102.80;37.83;;;1.30;99.90;;;;;;5039530;28;20068;-81
2022/01/16 01:42:17;;;;;;;92.00;34.30;;;1.30;99.90;;;;;;5041880;28;20491;-79
2022/01/16 01:52:57;;;;;;;124.30;41.20;;;1.30;99.90;;;;;;5062658;28;20423;-79
2022/01/16 01:55:24;;;;;;;95.83;32.40;;;1.30;99.90;;;;;;5067316;28;20028;-81
2022/01/16 01:57:51;;;;;;;97.68;34.97;;;1.30;99.90;;;;;;5073676;28;20519;-79
2022/01/16 02:00:18;;;;;;;139.80;41.13;;;1.30;99.90;;;;;;5073993;28;20109;-79
2022/01/16 02:05:30;;;;;;;95.20;32.27;;;1.20;99.90;;;;;;5062765;28;20052;-79
2022/01/16 02:07:57;;;;;;;142.70;42.20;;;1.20;99.90;;;;;;5039661;28;20044;-81
2022/01/16 02:10:23;;;;;;;71.27;24.60;;;1.20;99.90;;;;;;5073955;28;20041;-79
2022/01/16 02:12:56;;;;;;;127.90;37.00;;;1.20;99.90;;;;;;5073142;28;20048;-81
2022/01/16 02:37:03;;;;;;;79.10;27.57;;;1.30;99.90;;;;;;5056930;28;20056;-81
2022/01/16 02:39:35;;;;;;;95.90;29.10;;;1.30;99.90;;;;;;5072726;28;20205;-79
2022/01/16 02:42:03;;;;;;;53.33;22.30;;;1.20;99.90;;;;;;5055991;28;20048;-79
2022/01/16 02:46:55;;;;;;;76.40;25.70;;;1.20;99.90;;;;;;5072923;28;20048;-79
2022/01/16 02:49:22;;;;;;;101.43;28.33;;;1.20;99.90;;;;;;5055592;28;20071;-81
2022/01/16 02:51:50;;;;;;;79.27;26.37;;;1.20;99.90;;;;;;5072604;28;20123;-81
2022/01/16 02:54:16;;;;;;;92.60;29.77;;;1.20;99.90;;;;;;5055831;28;20115;-81
2022/01/16 02:56:43;;;;;;;170.57;38.30;;;1.20;99.90;;;;;;5072128;28;20048;-79
2022/01/16 02:59:12;;;;;;;110.23;30.07;;;1.20;99.90;;;;;;5055846;28;20063;-79
2022/01/16 03:01:39;;;;;;;178.60;38.73;;;1.20;99.90;;;;;;5071762;28;20051;-80
2022/01/16 03:04:05;;;;;;;122.33;33.13;;;1.20;99.90;;;;;;5072740;28;20071;-80
2022/01/16 03:06:31;;;;;;;69.53;22.77;;;1.30;99.90;;;;;;5055925;28;20082;-79
2022/01/16 03:08:57;;;;;;;128.40;31.97;;;1.20;99.90;;;;;;5052146;28;20045;-79
2022/01/16 03:11:36;;;;;;;151.40;36.73;;;1.20;99.90;;;;;;5067677;28;20047;-79
2022/01/16 03:14:09;;;;;;;205.03;41.80;;;1.20;99.90;;;;;;5072155;28;20045;-80
2022/01/16 03:16:35;;;;;;;239.98;45.85;;;1.20;99.90;;;;;;5072077;28;20044;-81
2022/01/16 03:21:54;;;;;;;127.67;33.80;;;1.30;99.90;;;;;;5083813;28;20111;-81
2022/01/16 03:24:30;;;;;;;148.77;37.90;;;1.30;99.90;;;;;;5036039;28;20063;-81
2022/01/16 03:26:58;;;;;;;147.67;34.03;;;1.30;99.90;;;;;;5063084;28;20447;-80
2022/01/16 03:29:27;;;;;;;112.53;29.17;;;1.30;99.90;;;;;;5071551;28;20055;-79
2022/01/16 03:31:54;;;;;;;143.33;37.60;;;1.40;99.90;;;;;;5055277;28;20040;-81
2022/01/16 03:34:20;;;;;;;170.17;39.83;;;1.40;99.90;;;;;;5055037;28;20040;-79
2022/01/16 03:36:47;;;;;;;70.70;22.23;;;1.40;99.90;;;;;;5055299;28;20071;-79
2022/01/16 03:39:12;;;;;;;120.63;32.00;;;1.40;99.90;;;;;;5035169;28;20049;-79
2022/01/16 03:41:38;;;;;;;155.80;38.57;;;1.40;99.90;;;;;;5053441;28;20040;-80
2022/01/16 03:44:06;;;;;;;69.50;23.60;;;1.40;99.90;;;;;;5045662;28;20072;-79
2022/01/16 03:46:37;;;;;;;105.50;29.33;;;1.40;99.90;;;;;;5071596;28;20040;-79
2022/01/16 03:49:08;;;;;;;158.10;41.97;;;1.50;99.90;;;;;;5071893;28;20398;-81
2022/01/16 03:51:35;;;;;;;96.13;27.70;;;1.50;99.90;;;;;;5067429;28;20049;-81
2022/01/16 03:54:02;;;;;;;107.77;32.40;;;1.50;99.90;;;;;;5065525;28;20048;-81
2022/01/16 03:56:27;;;;;;;106.93;30.27;;;1.50;99.90;;;;;;5049551;28;20045;-80
2022/01/16 03:58:53;;;;;;;159.13;37.60;;;1.50;99.90;;;;;;5044137;28;20047;-81
2022/01/16 04:01:19;;;;;;;174.30;41.37;;;1.60;99.90;;;;;;5071162;28;20503;-81
2022/01/16 04:03:45;;;;;;;199.25;43.60;;;1.50;99.90;;;;;;5071398;28;20048;-79
2022/01/16 04:06:11;;;;;;;159.77;38.07;;;1.60;99.90;;;;;;5070450;28;20063;-80
2022/01/16 04:08:37;;;;;;;152.93;37.93;;;1.60;99.90;;;;;;5070929;28;20048;-81
2022/01/16 04:11:03;;;;;;;101.47;27.97;;;1.60;99.90;;;;;;5054404;28;20044;-81
2022/01/16 04:13:31;;;;;;;101.93;28.53;;;1.60;99.90;;;;;;5055449;28;20056;-79
2022/01/16 04:15:57;;;;;;;157.32;39.25;;;1.60;99.90;;;;;;5038156;28;20059;-81
2022/01/16 04:18:23;;;;;;;130.53;34.97;;;1.60;99.90;;;;;;5054550;28;20040;-79
2022/01/16 04:20:49;;;;;;;190.18;43.78;;;1.70;99.90;;;;;;5053085;28;20051;-79
2022/01/16 04:23:15;;;;;;;163.93;39.37;;;1.70;99.90;;;;;;5054196;28;20047;-81
2022/01/16 04:25:42;;;;;;;187.47;44.00;;;1.70;99.90;;;;;;5051986;28;20072;-79
2022/01/16 04:28:07;;;;;;;102.97;31.02;;;1.80;99.90;;;;;;5054284;28;20140;-79
2022/01/16 04:30:33;;;;;;;163.98;39.50;;;1.80;99.90;;;;;;5071018;28;20047;-81
2022/01/16 04:32:59;;;;;;;219.48;48.28;;;1.80;99.90;;;;;;5053434;28;20204;-79
2022/01/16 04:35:25;;;;;;;126.63;33.33;;;1.80;99.90;;;;;;5053953;28;20044;-79
2022/01/16 04:37:51;;;;;;;128.75;32.97;;;1.90;99.90;;;;;;5054206;28;20051;-79
2022/01/16 04:40:17;;;;;;;105.13;27.77;;;1.90;99.90;;;;;;5054775;28;20101;-79
2022/01/16 04:45:28;;;;;;;205.13;46.13;;;2.00;99.90;;;;;;5071050;28;20106;-81
2022/01/16 04:47:55;;;;;;;146.13;39.60;;;2.00;99.90;;;;;;5070438;28;20036;-79
2022/01/16 04:50:22;;;;;;;179.50;44.03;;;2.00;99.90;;;;;;5053729;28;20090;-79
2022/01/16 04:52:49;;;;;;;147.35;38.80;;;2.10;99.90;;;;;;5070107;28;20082;-79
2022/01/16 04:55:16;;;;;;;109.78;31.23;;;2.10;99.90;;;;;;5035453;28;20041;-78
2022/01/16 04:57:42;;;;;;;224.93;51.63;;;2.10;99.90;;;;;;5046371;28;20098;-79
2022/01/16 05:00:14;;;;;;;228.03;52.70;;;2.20;99.90;;;;;;5058286;28;20036;-79
2022/01/16 05:02:40;;;;;;;190.07;44.63;;;2.20;99.90;;;;;;5074931;28;20101;-79
2022/01/16 05:05:06;;;;;;;193.18;45.70;;;2.30;99.90;;;;;;5054377;28;20033;-81
2022/01/16 05:07:32;;;;;;;212.00;45.67;;;2.30;99.90;;;;;;5055946;28;20130;-81
2022/01/16 05:09:58;;;;;;;198.85;45.33;;;2.30;99.90;;;;;;5072430;28;20083;-81
2022/01/16 05:12:35;;;;;;;166.68;40.92;;;2.30;99.90;;;;;;5058090;28;20119;-79
2022/01/16 05:17:46;;;;;;;146.10;37.70;;;2.40;99.90;;;;;;5067629;28;20087;-81
2022/01/16 05:20:12;;;;;;;195.68;44.03;;;2.40;99.90;;;;;;5074783;28;20072;-81
2022/01/16 05:22:38;;;;;;;159.88;39.42;;;2.50;99.90;;;;;;5074084;28;20048;-81
2022/01/16 05:25:07;;;;;;;91.22;26.98;;;2.40;99.90;;;;;;5057837;28;20524;-80
2022/01/16 05:27:33;;;;;;;139.15;33.78;;;2.50;99.90;;;;;;5057494;28;20040;-79
2022/01/16 05:29:59;;;;;;;87.30;26.38;;;2.50;99.90;;;;;;5074596;28;20098;-79
2022/01/16 05:32:25;;;;;;;225.88;51.10;;;2.50;99.90;;;;;;5074146;28;20052;-79
2022/01/16 05:34:51;;;;;;;221.88;48.55;;;2.50;99.90;;;;;;5041546;28;20044;-80
2022/01/16 05:37:16;;;;;;;204.13;46.90;;;2.60;99.90;;;;;;5055241;28;20511;-79
2022/01/16 05:39:44;;;;;;;203.13;45.40;;;2.50;99.90;;;;;;5053459;28;20040;-80
2022/01/16 05:42:12;;;;;;;156.95;39.22;;;2.60;99.90;;;;;;5070789;28;20044;-79
2022/01/16 05:44:38;;;;;;;158.95;38.45;;;2.60;99.90;;;;;;5064746;28;20072;-79
2022/01/16 05:47:05;;;;;;;187.02;44.13;;;2.60;99.90;;;;;;5074064;28;20040;-79
2022/01/16 05:49:31;;;;;;;153.02;36.63;;;2.60;99.90;;;;;;5056770;28;20072;-81
2022/01/16 05:51:56;;;;;;;243.13;49.88;;;2.60;99.90;;;;;;5073138;28;20580;-79
2022/01/16 05:54:22;;;;;;;106.38;30.38;;;2.60;99.90;;;;;;5057495;28;20127;-79
2022/01/16 05:56:48;;;;;;;133.00;34.40;;;2.70;99.90;;;;;;5073396;28;20154;-79
2022/01/16 05:59:14;;;;;;;206.48;44.63;;;2.80;99.90;;;;;;5054026;28;20352;-79
2022/01/16 06:01:39;;;;;;;212.43;48.28;;;2.70;99.90;;;;;;5066867;28;20399;-80
2022/01/16 06:04:05;;;;;;;171.43;44.30;;;2.70;99.90;;;;;;5073772;28;20123;-79
2022/01/16 06:06:31;;;;;;;212.38;50.03;;;2.80;99.90;;;;;;5071232;28;20036;-81
2022/01/16 06:08:56;;;;;;;105.82;31.17;;;2.80;99.90;;;;;;5072732;28;20560;-81
2022/01/16 06:11:22;;;;;;;169.52;40.78;;;2.80;99.90;;;;;;5053666;28;20080;-81
2022/01/16 06:13:47;;;;;;;139.50;38.75;;;2.80;99.90;;;;;;5073078;28;20483;-79
2022/01/16 06:16:13;;;;;;;103.93;29.45;;;2.90;99.90;;;;;;5054418;28;20553;-81
2022/01/16 06:18:39;;;;;;;123.50;35.45;;;2.90;99.90;;;;;;5071883;28;20077;-79
2022/01/16 06:21:05;;;;;;;139.82;38.50;;;3.20;99.90;;;;;;5073194;28;20052;-80
2022/01/16 06:23:30;;;;;;;68.85;23.38;;;3.00;99.90;;;;;;5073012;28;20457;-81
2022/01/16 06:25:56;;;;;;;149.57;40.55;;;3.10;99.90;;;;;;5073091;28;20053;-81
2022/01/16 06:28:24;;;;;;;108.30;30.42;;;3.10;99.90;;;;;;5072734;28;20080;-81
2022/01/16 06:30:50;;;;;;;140.05;39.38;;;3.20;99.90;;;;;;5057706;28;20055;-81
2022/01/16 06:33:15;;;;;;;85.05;25.08;;;3.10;99.90;;;;;;5056650;28;20044;-81
2022/01/16 06:35:41;;;;;;;124.72;37.67;;;3.20;99.90;;;;;;5073068;28;20037;-81
2022/01/16 06:38:07;;;;;;;91.40;28.27;;;3.20;99.90;;;;;;5071405;28;20037;-81
2022/01/16 06:40:33;;;;;;;172.43;48.90;;;3.20;99.90;;;;;;5071391;28;20119;-81
2022/01/16 06:42:58;;;;;;;140.13;40.17;;;3.30;99.90;;;;;;5073375;28;20475;-81
2022/01/16 06:45:24;;;;;;;203.05;54.85;;;3.30;99.90;;;;;;5072989;28;20072;-81
2022/01/16 06:47:51;;;;;;;159.85;47.70;;;3.30;99.90;;;;;;5053010;28;20053;-79
2022/01/16 06:50:17;;;;;;;176.10;47.58;;;3.40;99.90;;;;;;5070333;28;20049;-79
2022/01/16 06:52:43;;;;;;;150.20;43.85;;;3.40;99.90;;;;;;5072632;28;20044;-79
2022/01/16 06:55:09;;;;;;;161.60;48.37;;;3.40;99.90;;;;;;5072505;28;20528;-79
2022/01/16 06:57:35;;;;;;;174.52;50.67;;;3.40;99.90;;;;;;5036396;28;20553;-80
2022/01/16 07:00:03;;;;;;;70.80;27.23;;;3.40;99.90;;;;;;5052984;28;20041;-79
2022/01/16 07:02:29;;;;;;;89.65;29.52;;;3.50;99.90;;;;;;5053127;28;20053;-80
2022/01/16 07:04:55;;;;;;;147.60;43.90;;;3.50;99.90;;;;;;5054768;28;20103;-79
2022/01/16 07:07:20;;;;;;;109.85;34.20;;;3.50;99.90;;;;;;5071782;28;20047;-81
2022/01/16 07:09:46;;;;;;;148.65;45.88;;;3.50;99.90;;;;;;5035775;28;20091;-79
2022/01/16 07:12:12;;;;;;;88.93;31.85;;;3.50;99.90;;;;;;5062418;28;20049;-81
2022/01/16 07:14:38;;;;;;;147.52;47.63;;;3.60;99.90;;;;;;5072260;28;20036;-79
2022/01/16 07:17:04;;;;;;;161.73;46.63;;;3.60;99.90;;;;;;5055624;28;20047;-79
2022/01/16 07:19:29;;;;;;;169.18;50.72;;;3.60;99.90;;;;;;5071175;28;20063;-79
2022/01/16 07:21:55;;;;;;;145.90;42.40;;;3.60;99.90;;;;;;5071504;28;20486;-81
2022/01/16 07:24:21;;;;;;;183.65;54.75;;;3.60;99.90;;;;;;5051966;28;20037;-78
2022/01/16 07:26:47;;;;;;;142.55;44.25;;;3.60;99.90;;;;;;5048611;28;20059;-81
2022/01/16 07:29:13;;;;;;;82.68;28.00;;;3.60;99.90;;;;;;5072555;28;20056;-81
2022/01/16 07:31:39;;;;;;;67.90;23.33;;;3.70;99.90;;;;;;5071391;28;20098;-79
2022/01/16 07:34:06;;;;;;;112.65;39.38;;;3.70;99.90;;;;;;5048307;28;20037;-79
2022/01/16 07:36:32;;;;;;;114.72;37.38;;;3.70;99.90;;;;;;5046244;28;20067;-81
2022/01/16 07:38:58;;;;;;;110.10;38.67;;;3.80;99.90;;;;;;5053437;28;20055;-79
2022/01/16 07:41:23;;;;;;;78.88;30.25;;;4.00;99.90;;;;;;5050262;28;20040;-79
2022/01/16 07:43:49;;;;;;;116.93;43.95;;;4.10;99.90;;;;;;5055630;28;20097;-79
2022/01/16 07:46:17;;;;;;;83.07;33.95;;;4.00;99.90;;;;;;5054680;28;20050;-81
2022/01/16 07:48:43;;;;;;;70.68;30.05;;;4.00;99.90;;;;;;5071222;28;20043;-78
2022/01/16 07:51:09;;;;;;;42.13;17.90;;;4.10;99.90;;;;;;5071684;28;20036;-81
2022/01/16 07:53:35;;;;;;;92.82;37.72;;;4.20;99.90;;;;;;5054777;28;20513;-81
2022/01/16 07:56:00;;;;;;;80.85;33.38;;;4.30;99.90;;;;;;5071585;28;20132;-78
2022/01/16 07:58:26;;;;;;;47.83;21.60;;;4.30;99.90;;;;;;5052603;28;20058;-79
2022/01/16 08:00:52;;;;;;;65.60;28.67;;;4.40;99.90;;;;;;5041293;28;20165;-78
2022/01/16 08:03:17;;;;;;;53.63;24.83;;;4.50;99.90;;;;;;5063708;28;20049;-81
2022/01/16 08:05:43;;;;;;;37.88;16.30;;;4.50;99.90;;;;;;5051096;28;20174;-78
2022/01/16 08:08:09;;;;;;;79.90;35.13;;;4.50;99.90;;;;;;5053413;28;21621;-81
2022/01/16 08:10:35;;;;;;;54.03;24.17;;;4.50;99.90;;;;;;5050820;28;20130;-81
2022/01/16 08:13:01;;;;;;;51.03;25.40;;;4.60;99.90;;;;;;5048433;28;20053;-79
2022/01/16 08:15:27;;;;;;;43.80;21.48;;;4.60;99.90;;;;;;5070285;28;20064;-81
2022/01/16 08:17:53;;;;;;;68.78;32.70;;;4.60;99.90;;;;;;5070819;28;20036;-81
2022/01/16 08:20:18;;;;;;;59.45;29.23;;;4.60;99.90;;;;;;5070525;28;20044;-81
2022/01/16 08:22:45;;;;;;;39.53;20.38;;;4.80;99.90;;;;;;5054031;28;20131;-79
2022/01/16 08:25:11;;;;;;;56.40;25.77;;;4.70;99.90;;;;;;5070673;28;20048;-79
2022/01/16 08:27:37;;;;;;;47.85;23.60;;;4.70;99.90;;;;;;5069419;28;20041;-80
2022/01/16 08:30:04;;;;;;;30.90;15.63;;;4.70;99.90;;;;;;5070576;28;20094;-81
2022/01/16 08:32:30;;;;;;;49.65;24.65;;;4.80;99.90;;;;;;5070854;28;20422;-79
2022/01/16 08:34:56;;;;;;;48.33;25.33;;;4.70;99.90;;;;;;5070821;28;20097;-79
2022/01/16 08:37:21;;;;;;;51.13;24.90;;;4.70;99.90;;;;;;5053847;28;20049;-79
2022/01/16 08:39:47;;;;;;;50.95;26.23;;;4.70;99.90;;;;;;5054275;28;20076;-79
2022/01/16 08:42:13;;;;;;;47.75;23.20;;;4.60;99.90;;;;;;5035018;28;20571;-78
2022/01/16 08:44:39;;;;;;;41.10;20.52;;;4.60;99.90;;;;;;5054720;28;20076;-81
2022/01/16 08:47:06;;;;;;;40.10;21.38;;;4.60;99.90;;;;;;5054077;28;20510;-78
2022/01/16 08:49:32;;;;;;;47.58;23.23;;;4.60;99.90;;;;;;5053883;28;20045;-81
2022/01/16 08:51:58;;;;;;;35.97;18.27;;;4.70;99.90;;;;;;5069948;28;20041;-78
2022/01/16 08:54:24;;;;;;;49.63;23.70;;;4.70;99.90;;;;;;5037345;28;20036;-81
2022/01/16 08:56:49;;;;;;;33.80;17.80;;;4.70;99.90;;;;;;5070132;28;20036;-81
2022/01/16 08:59:15;;;;;;;40.85;22.30;;;4.80;99.90;;;;;;5054297;28;20083;-79
2022/01/16 09:01:41;;;;;;;52.47;25.02;;;4.80;99.90;;;;;;5033502;28;20061;-81
2022/01/16 09:04:07;;;;;;;29.42;14.85;;;4.80;99.90;;;;;;5061743;28;20483;-79
2022/01/16 09:06:33;;;;;;;42.13;20.13;;;4.90;99.90;;;;;;5042795;28;20040;-81
2022/01/16 09:08:59;;;;;;;40.53;20.45;;;4.80;99.90;;;;;;5069996;28;20044;-81
2022/01/16 09:11:25;;;;;;;45.80;18.40;;;4.90;99.90;;;;;;5051449;28;20045;-78
2022/01/16 09:13:52;;;;;;;30.73;15.50;;;4.90;99.90;;;;;;5034747;28;20052;-79
2022/01/16 09:16:19;;;;;;;33.55;19.92;;;5.00;99.90;;;;;;5038804;28;20045;-78
2022/01/16 09:18:45;;;;;;;43.90;20.65;;;5.00;99.90;;;;;;5070913;28;20063;-79
2022/01/16 09:21:11;;;;;;;31.25;16.38;;;5.10;99.90;;;;;;5053504;28;20158;-80
2022/01/16 09:23:38;;;;;;;38.15;19.38;;;5.10;99.90;;;;;;5070167;28;20063;-79
2022/01/16 09:26:04;;;;;;;39.83;21.25;;;5.20;99.90;;;;;;5053528;28;20059;-78
2022/01/16 09:28:29;;;;;;;31.48;17.70;;;5.20;99.90;;;;;;5070378;28;20048;-79
2022/01/16 09:30:55;;;;;;;38.78;22.17;;;5.40;99.90;;;;;;5053266;28;20069;-79
2022/01/16 09:33:21;;;;;;;48.15;24.15;;;5.20;99.90;;;;;;5056846;28;20467;-80
2022/01/16 09:35:47;;;;;;;44.08;24.30;;;5.30;99.90;;;;;;5047970;28;20050;-81
2022/01/16 09:38:12;;;;;;;33.70;16.35;;;5.20;99.90;;;;;;5069578;28;20044;-79
2022/01/16 09:40:40;;;;;;;41.58;21.63;;;5.30;99.90;;;;;;5053551;28;20079;-80
2022/01/16 09:43:06;;;;;;;28.48;15.55;;;5.40;99.90;;;;;;5074195;28;20434;-79
2022/01/16 09:45:32;;;;;;;41.50;19.95;;;5.40;99.90;;;;;;5056861;28;20056;-81
2022/01/16 09:47:58;;;;;;;35.95;18.67;;;5.40;99.90;;;;;;5068597;28;20407;-80
2022/01/16 09:50:26;;;;;;;35.53;19.88;;;5.50;99.90;;;;;;5071860;28;20041;-79
2022/01/16 09:52:53;;;;;;;21.40;11.48;;;5.50;99.90;;;;;;5073128;28;20509;-78
2022/01/16 09:55:20;;;;;;;42.25;20.75;;;5.60;99.90;;;;;;5056968;28;20566;-80
2022/01/16 09:57:47;;;;;;;23.35;14.05;;;5.70;99.90;;;;;;5046633;28;20044;-81
2022/01/16 10:00:15;;;;;;;36.17;14.02;;;5.60;99.90;;;;;;5074008;28;20056;-81
2022/01/16 10:02:42;;;;;;;24.52;13.30;;;5.70;99.90;;;;;;5072252;28;20044;-78
2022/01/16 10:05:26;;;;;;;30.77;16.35;;;5.80;99.90;;;;;;5073557;28;20048;-79
2022/01/16 10:07:54;;;;;;;36.03;19.55;;;6.00;99.90;;;;;;5056789;28;20399;-81
2022/01/16 10:10:23;;;;;;;30.23;17.58;;;5.80;99.90;;;;;;5056532;28;20076;-79
2022/01/16 10:12:52;;;;;;;21.48;10.48;;;5.90;99.90;;;;;;5072631;28;20415;-79
2022/01/16 10:15:28;;;;;;;26.90;15.57;;;6.10;99.90;;;;;;5072854;28;20036;-81
2022/01/16 10:17:57;;;;;;;27.42;14.68;;;6.00;99.90;;;;;;5064785;28;20040;-79
2022/01/16 10:20:24;;;;;;;30.55;13.10;;;6.20;99.90;;;;;;5071845;28;20040;-79
2022/01/16 10:22:59;;;;;;;23.30;12.05;;;6.10;99.90;;;;;;5072118;28;20521;-81
2022/01/16 10:25:45;;;;;;;22.05;11.73;;;6.10;99.90;;;;;;5053449;28;20090;-81
2022/01/16 10:28:22;;;;;;;32.03;13.55;;;6.20;99.90;;;;;;5072040;28;20494;-79
2022/01/16 10:30:54;;;;;;;28.05;14.43;;;6.30;99.90;;;;;;5071626;28;20037;-79
2022/01/16 10:33:23;;;;;;;36.28;16.08;;;6.20;99.90;;;;;;5071528;28;20059;-79
2022/01/16 10:35:52;;;;;;;30.92;15.15;;;6.30;99.90;;;;;;5071426;28;20044;-80
2022/01/16 10:38:21;;;;;;;34.53;15.98;;;6.30;99.90;;;;;;5069233;28;20051;-80
2022/01/16 10:40:51;;;;;;;35.80;17.00;;;6.40;99.90;;;;;;5071021;28;20115;-78
2022/01/16 10:43:38;;;;;;;29.35;14.00;;;6.30;99.90;;;;;;5055070;28;20068;-81
2022/01/16 10:46:05;;;;;;;29.92;16.00;;;6.30;99.90;;;;;;5071509;28;20118;-81
2022/01/16 10:48:32;;;;;;;29.52;13.63;;;6.40;99.90;;;;;;5056642;28;20518;-81
2022/01/16 10:50:58;;;;;;;25.02;12.95;;;6.50;99.90;;;;;;5064223;28;20045;-81
2022/01/16 10:53:27;;;;;;;23.90;11.07;;;6.50;99.90;;;;;;5069582;28;20160;-81
2022/01/16 10:55:55;;;;;;;21.17;11.48;;;6.40;99.90;;;;;;5071571;28;20064;-79
2022/01/16 10:58:41;;;;;;;30.48;13.30;;;6.50;99.90;;;;;;5070927;28;20048;-79
2022/01/16 11:01:18;;;;;;;22.65;11.45;;;6.60;99.90;;;;;;5041208;28;20537;-79
2022/01/16 11:03:58;;;;;;;27.55;12.90;;;6.50;99.90;;;;;;5070931;28;20075;-80
2022/01/16 11:06:27;;;;;;;27.00;11.68;;;6.50;99.90;;;;;;5071166;28;20045;-81
2022/01/16 11:08:59;;;;;;;29.50;13.73;;;6.50;99.90;;;;;;5054107;28;20040;-79
2022/01/16 11:11:25;;;;;;;29.67;13.27;;;6.50;99.90;;;;;;5070988;28;20132;-81
2022/01/16 11:13:51;;;;;;;27.75;10.05;;;6.50;99.90;;;;;;5052945;28;20127;-79
2022/01/16 11:16:17;;;;;;;24.42;11.45;;;6.50;99.90;;;;;;5047969;28;20182;-81
2022/01/16 11:18:48;;;;;;;25.55;8.98;;;6.50;99.90;;;;;;5070219;28;20131;-81
2022/01/16 11:21:19;;;;;;;25.73;9.63;;;6.50;99.90;;;;;;5071589;28;20511;-81
2022/01/16 11:26:20;;;;;;;15.82;7.22;;;6.50;99.90;;;;;;5078818;28;20048;-80
2022/01/16 11:28:47;;;;;;;15.70;8.60;;;6.50;99.90;;;;;;5054260;28;20053;-79
2022/01/16 11:31:15;;;;;;;17.35;7.97;;;6.50;99.90;;;;;;5070798;28;20041;-79
2022/01/16 11:33:42;;;;;;;34.15;10.02;;;6.50;99.90;;;;;;5053812;28;20052;-79
2022/01/16 11:36:17;;;;;;;17.75;7.55;;;6.60;99.90;;;;;;5070668;28;20487;-81
2022/01/16 11:38:45;;;;;;;23.25;8.55;;;6.60;99.90;;;;;;5069663;28;20159;-79
2022/01/16 11:41:16;;;;;;;17.85;6.78;;;6.60;99.90;;;;;;5053927;28;20407;-81
2022/01/16 11:43:46;;;;;;;32.70;8.00;;;6.60;99.90;;;;;;5053647;28;20032;-79
2022/01/16 11:46:18;;;;;;;22.23;7.57;;;6.60;99.90;;;;;;5049926;28;20116;-81
2022/01/16 11:49:00;;;;;;;17.30;5.60;;;6.60;99.90;;;;;;5068257;28;20495;-79
2022/01/16 11:51:35;;;;;;;14.57;6.20;;;6.60;99.90;;;;;;5051054;28;20438;-81
2022/01/16 11:54:08;;;;;;;12.00;5.22;;;6.70;99.90;;;;;;5053087;28;20037;-81
2022/01/16 11:56:37;;;;;;;;;;;6.70;99.90;;;;;;5070524;28;20109;-79
2022/01/16 11:59:15;;;;;;;11.52;4.80;;;6.70;99.90;;;;;;5069776;28;19927;-79
2022/01/16 12:01:51;;;;;;;10.88;4.82;;;6.70;99.90;;;;;;5069827;28;20096;-79
2022/01/16 12:04:31;;;;;;;16.67;5.97;;;6.70;99.90;;;;;;5053593;28;20052;-79
2022/01/16 12:07:12;;;;;;;13.07;5.72;;;6.80;99.90;;;;;;5068268;28;20059;-79
2022/01/16 12:09:41;;;;;;;9.77;3.33;;;6.80;99.90;;;;;;5051589;28;20150;-79
2022/01/16 12:12:13;;;;;;;20.77;6.30;;;6.90;99.90;;;;;;5053002;28;20036;-82
2022/01/16 12:14:53;;;;;;;9.30;4.43;;;6.70;99.90;;;;;;5069996;28;20041;-81
2022/01/16 12:17:30;;;;;;;18.30;5.07;;;6.70;99.90;;;;;;5053625;28;20402;-81
2022/01/16 12:19:58;;;;;;;13.95;4.03;;;6.70;99.90;;;;;;5052945;28;20041;-81
2022/01/16 12:22:42;;;;;;;13.68;5.75;;;6.70;99.90;;;;;;5069181;28;20044;-80
2022/01/16 12:25:23;;;;;;;13.63;5.13;;;6.80;99.90;;;;;;5069723;28;20044;-80
2022/01/16 12:28:02;;;;;;;11.15;3.65;;;6.70;99.90;;;;;;5052789;28;20044;-80
2022/01/16 12:30:33;;;;;;;16.40;6.15;;;6.70;99.90;;;;;;5069300;28;20040;-79
2022/01/16 12:33:11;;;;;;;10.80;4.88;;;6.70;99.90;;;;;;5052772;28;20036;-81
2022/01/16 12:35:49;;;;;;;18.63;4.85;;;6.70;99.90;;;;;;5052553;28;20068;-79
2022/01/16 12:38:32;;;;;;;12.10;4.15;;;6.70;99.90;;;;;;5053339;28;20045;-81
2022/01/16 12:41:28;;;;;;;16.45;5.07;;;6.70;99.90;;;;;;5055892;28;20518;-82
2022/01/16 12:44:29;;;;;;;14.40;5.25;;;6.70;99.90;;;;;;5070494;28;20048;-79
2022/01/16 12:46:56;;;;;;;13.60;4.15;;;6.80;99.90;;;;;;5031635;28;20123;-81
2022/01/16 12:49:26;;;;;;;14.30;5.53;;;6.80;99.90;;;;;;5027350;28;20098;-81
2022/01/16 12:51:54;;;;;;;8.73;3.53;;;6.70;99.90;;;;;;5034571;28;20406;-79
2022/01/16 12:54:22;;;;;;;10.23;3.70;;;6.70;99.90;;;;;;5051141;28;20049;-81
2022/01/16 12:56:56;;;;;;;11.13;4.40;;;6.70;99.90;;;;;;5051091;28;20084;-81
2022/01/16 12:59:25;;;;;;;11.15;4.32;;;6.70;99.90;;;;;;5034507;28;20041;-80
2022/01/16 13:01:57;;;;;;;11.80;5.20;;;6.80;99.90;;;;;;5034486;28;20041;-81
2022/01/16 13:04:27;;;;;;;14.07;4.75;;;6.70;99.90;;;;;;5067758;28;20098;-81
2022/01/16 13:07:03;;;;;;;11.65;4.93;;;6.70;99.90;;;;;;5034579;28;20049;-81
2022/01/16 13:09:30;;;;;;;11.35;4.72;;;6.60;99.90;;;;;;5034459;28;20045;-81
2022/01/16 13:12:01;;;;;;;9.02;3.53;;;6.70;99.90;;;;;;5034284;28;20064;-81
2022/01/16 13:14:34;;;;;;;10.35;4.25;;;6.70;99.90;;;;;;5034383;28;20124;-80
2022/01/16 13:17:08;;;;;;;6.63;2.85;;;6.60;99.90;;;;;;5036506;28;20492;-80
2022/01/16 13:19:39;;;;;;;;;;;6.60;99.90;;;;;;5055033;28;20041;-80
2022/01/16 13:24:44;;;;;;;11.52;4.70;;;6.60;99.90;;;;;;5054705;28;20045;-81
2022/01/16 13:27:09;;;;;;;9.57;3.67;;;6.60;99.90;;;;;;5054731;28;20075;-81
2022/01/16 13:29:37;;;;;;;8.02;4.47;;;6.70;99.90;;;;;;5037942;28;20049;-80
2022/01/16 13:32:05;;;;;;;10.55;4.38;;;6.70;99.90;;;;;;5038026;28;20522;-82